Time;durP1;ratioP1;P1;durP2;ratioP2;P2;SDS_P1;SDS_P2;PMS_P1;PMS_P2;Temp;Humidity;BMP_temperature;BMP_pressure;BME280_temperature;BME280_humidity;BME280_pressure;Samples;Min_cycle;Max_cycle;Signal;HPM_P1;HPM_P2
2022/04/14 00:00:17;;;;;;;16.80;15.10;;;;;;;9.05;36.98;98298.46;107906;1291;22404;-83
2022/04/14 00:03:02;;;;;;;16.40;14.50;;;;;;;9.02;37.10;98305.41;107887;1291;22409;-82
2022/04/14 00:05:30;;;;;;;17.20;13.90;;;;;;;8.98;37.22;98303.34;107890;1291;22403;-83
2022/04/14 00:07:58;;;;;;;16.80;14.20;;;;;;;8.95;37.24;98304.36;107526;1293;22384;-84
2022/04/14 00:10:26;;;;;;;15.20;13.60;;;;;;;8.92;37.47;98301.55;107901;1290;22373;-82
2022/04/14 00:12:54;;;;;;;16.00;14.30;;;;;;;8.89;37.65;98304.09;107867;1291;22409;-85
2022/04/14 00:15:22;;;;;;;20.00;15.90;;;;;;;8.86;37.48;98302.21;107889;1291;22379;-83
2022/04/14 00:17:50;;;;;;;17.60;14.20;;;;;;;8.84;37.70;98300.36;107891;1290;23037;-82
2022/04/14 00:20:18;;;;;;;19.00;15.90;;;;;;;8.80;37.68;98302.31;107894;1291;23204;-81
2022/04/14 00:22:45;;;;;;;19.80;17.70;;;;;;;8.77;37.76;98303.30;107876;1290;22443;-81
2022/04/14 00:25:13;;;;;;;18.20;16.20;;;;;;;8.74;37.90;98300.63;107865;1291;22241;-81
2022/04/14 00:27:41;;;;;;;19.10;15.40;;;;;;;8.68;37.92;98302.97;107903;1288;22201;-82
2022/04/14 00:30:10;;;;;;;19.20;16.30;;;;;;;8.63;37.94;98309.11;107645;1290;332071;-82
2022/04/14 00:32:38;;;;;;;19.30;14.50;;;;;;;8.59;37.98;98307.95;107893;1290;22504;-81
2022/04/14 00:35:07;;;;;;;17.60;15.00;;;;;;;8.55;38.03;98307.27;107898;1291;22316;-81
2022/04/14 00:37:35;;;;;;;16.10;14.20;;;;;;;8.50;38.22;98307.93;107914;1290;22564;-82
2022/04/14 00:40:05;;;;;;;17.70;15.80;;;;;;;8.46;38.29;98309.77;107449;1293;23463;-84
2022/04/14 00:42:33;;;;;;;18.00;15.10;;;;;;;8.43;38.31;98311.94;107915;1291;22900;-81
2022/04/14 00:45:01;;;;;;;15.20;13.70;;;;;;;8.40;38.20;98312.59;107639;1291;22288;-83
2022/04/14 00:47:29;;;;;;;17.30;15.20;;;;;;;8.37;38.32;98315.69;107581;1291;22520;-84
2022/04/14 00:49:58;;;;;;;17.60;15.80;;;;;;;8.36;38.28;98311.34;107622;1292;22370;-82
2022/04/14 00:52:26;;;;;;;15.60;14.00;;;;;;;8.32;38.46;98312.64;107931;1291;22251;-84
2022/04/14 00:54:54;;;;;;;19.50;16.40;;;;;;;8.28;38.43;98306.64;108088;1290;22348;-87
2022/04/14 00:57:22;;;;;;;19.20;17.10;;;;;;;8.24;38.59;98308.74;107550;1291;22982;-85
2022/04/14 00:59:50;;;;;;;18.30;16.40;;;;;;;8.21;38.80;98309.08;107890;1291;22252;-85
2022/04/14 01:02:18;;;;;;;18.00;15.60;;;;;;;8.19;38.68;98311.39;107922;1291;22435;-84
2022/04/14 01:04:47;;;;;;;17.70;15.90;;;;;;;8.19;38.79;98310.96;107910;1291;22355;-83
2022/04/14 01:07:15;;;;;;;18.10;15.30;;;;;;;8.17;38.84;98311.13;107890;1291;22469;-84
2022/04/14 01:09:45;;;;;;;18.50;16.20;;;;;;;8.16;38.95;98309.85;107586;1291;22345;-84
2022/04/14 01:12:15;;;;;;;16.70;15.10;;;;;;;8.11;38.91;98306.30;107576;1291;22779;-83
2022/04/14 01:14:43;;;;;;;17.50;15.70;;;;;;;8.10;38.93;98310.61;107880;1290;22435;-84
2022/04/14 01:17:11;;;;;;;17.40;15.60;;;;;;;8.08;38.92;98311.47;107917;1290;22499;-83
2022/04/14 01:19:39;;;;;;;16.30;14.50;;;;;;;8.05;38.96;98312.17;107898;1291;22346;-84
2022/04/14 01:22:11;;;;;;;16.00;14.40;;;;;;;8.04;39.15;98309.83;107887;1290;22274;-83
2022/04/14 01:24:39;;;;;;;15.70;14.10;;;;;;;8.03;39.06;98308.36;107866;1290;22315;-83
2022/04/14 01:27:08;;;;;;;16.20;14.60;;;;;;;8.03;39.08;98311.27;107884;1290;22487;-83
2022/04/14 01:29:36;;;;;;;16.80;15.10;;;;;;;8.03;39.21;98313.15;107878;1291;22473;-83
2022/04/14 01:32:05;;;;;;;16.50;14.80;;;;;;;8.04;39.28;98309.98;107902;1291;22938;-84
2022/04/14 01:34:33;;;;;;;16.80;15.00;;;;;;;8.03;39.07;98306.71;107879;1289;22482;-84
2022/04/14 01:37:01;;;;;;;16.90;15.00;;;;;;;8.02;39.15;98301.61;107927;1291;23082;-82
2022/04/14 01:39:29;;;;;;;17.40;15.60;;;;;;;8.01;39.12;98302.20;107894;1288;23060;-84
2022/04/14 01:41:57;;;;;;;18.50;15.30;;;;;;;7.99;39.26;98304.14;107912;1291;22445;-84
2022/04/14 01:44:25;;;;;;;16.90;14.70;;;;;;;7.98;39.34;98302.05;107553;1291;22324;-83
2022/04/14 01:46:53;;;;;;;16.50;14.80;;;;;;;7.96;39.28;98298.29;107893;1291;22290;-83
2022/04/14 01:49:21;;;;;;;19.80;17.30;;;;;;;7.96;39.34;98302.16;107569;1291;22284;-83
2022/04/14 01:51:49;;;;;;;16.40;14.70;;;;;;;7.94;39.36;98305.27;107880;1291;22373;-84
2022/04/14 01:54:17;;;;;;;18.00;14.60;;;;;;;7.92;39.19;98302.42;107588;1291;22977;-84
2022/04/14 01:56:46;;;;;;;20.10;16.90;;;;;;;7.89;39.30;98303.99;107906;1290;22366;-84
2022/04/14 01:59:13;;;;;;;22.50;20.20;;;;;;;7.86;39.16;98302.02;107878;1290;22292;-84
2022/04/14 02:01:41;;;;;;;24.20;21.70;;;;;;;7.84;39.08;98304.05;107944;1291;22164;-85
2022/04/14 02:04:09;;;;;;;19.30;17.00;;;;;;;7.82;39.24;98306.16;107948;1291;22264;-84
2022/04/14 02:06:37;;;;;;;18.60;16.60;;;;;;;7.81;39.49;98306.48;107936;1290;22385;-84
2022/04/14 02:09:05;;;;;;;15.80;14.10;;;;;;;7.78;39.48;98302.83;107944;1290;22498;-84
2022/04/14 02:11:33;;;;;;;16.70;15.10;;;;;;;7.76;39.38;98306.15;107973;1290;22412;-82
2022/04/14 02:14:01;;;;;;;17.40;15.50;;;;;;;7.74;39.50;98307.61;107914;1291;22433;-83
2022/04/14 02:16:29;;;;;;;19.90;17.00;;;;;;;7.69;39.32;98303.16;107923;1291;22529;-84
2022/04/14 02:18:57;;;;;;;19.90;17.90;;;;;;;7.61;39.75;98304.30;107932;1291;22314;-83
2022/04/14 02:21:26;;;;;;;24.40;22.00;;;;;;;7.56;39.67;98305.27;107870;1290;22411;-84
2022/04/14 02:23:54;;;;;;;22.00;19.70;;;;;;;7.53;39.65;98305.21;107902;1291;23067;-83
2022/04/14 02:26:22;;;;;;;20.70;18.30;;;;;;;7.50;39.60;98303.60;107881;1290;22275;-84
2022/04/14 02:28:50;;;;;;;19.50;17.60;;;;;;;7.45;39.71;98301.45;107898;1290;23121;-84
2022/04/14 02:31:17;;;;;;;18.10;16.20;;;;;;;7.40;39.45;98302.04;107904;1291;22430;-84
2022/04/14 02:33:45;;;;;;;17.60;15.80;;;;;;;7.35;39.68;98299.48;107910;1291;22366;-84
2022/04/14 02:36:13;;;;;;;17.30;15.50;;;;;;;7.25;39.83;98299.46;107611;1293;22939;-83
2022/04/14 02:38:43;;;;;;;19.10;16.90;;;;;;;7.12;40.17;98296.02;107901;1291;23045;-83
2022/04/14 02:41:11;;;;;;;18.10;16.30;;;;;;;7.05;39.99;98294.78;107906;1291;22454;-85
2022/04/14 02:43:39;;;;;;;18.10;16.10;;;;;;;7.00;40.11;98295.02;107918;1290;22364;-84
2022/04/14 02:46:07;;;;;;;17.40;15.30;;;;;;;6.97;40.33;98295.84;107882;1290;22418;-84
2022/04/14 02:48:35;;;;;;;21.50;17.70;;;;;;;6.92;40.10;98293.84;107899;1290;22615;-84
2022/04/14 02:51:03;;;;;;;25.20;22.60;;;;;;;6.86;40.15;98296.19;107913;1291;22321;-85
2022/04/14 02:53:31;;;;;;;23.40;20.90;;;;;;;6.76;40.61;98293.38;107894;1290;22347;-85
2022/04/14 02:55:59;;;;;;;22.80;20.50;;;;;;;6.67;40.27;98291.64;107886;1291;22335;-85
2022/04/14 02:58:27;;;;;;;22.20;19.60;;;;;;;6.59;40.98;98291.23;107893;1291;22467;-85
2022/04/14 03:00:54;;;;;;;19.10;17.20;;;;;;;6.47;40.57;98291.30;107901;1291;22557;-85
2022/04/14 03:03:24;;;;;;;19.60;17.70;;;;;;;6.28;41.00;98289.29;107886;1291;22357;-86
2022/04/14 03:05:51;;;;;;;53.70;49.10;;;;;;;6.10;41.36;98290.81;107892;1290;22358;-82
2022/04/14 03:08:19;;;;;;;28.10;25.00;;;;;;;5.98;41.54;98289.08;107914;1291;22269;-85
2022/04/14 03:10:47;;;;;;;21.30;19.00;;;;;;;5.81;41.18;98288.05;107891;1291;23266;-87
2022/04/14 03:13:16;;;;;;;21.80;19.60;;;;;;;5.63;41.29;98292.64;107544;1293;22277;-87
2022/04/14 03:15:48;;;;;;;22.60;20.30;;;;;;;5.48;41.42;98290.50;107935;1291;22326;-87
2022/04/14 03:18:17;;;;;;;22.10;19.80;;;;;;;5.32;41.93;98287.27;107914;1291;22315;-87
2022/04/14 03:20:45;;;;;;;22.70;20.50;;;;;;;5.24;41.99;98285.29;107906;1290;22736;-88
2022/04/14 03:23:13;;;;;;;23.80;21.40;;;;;;;5.15;42.30;98286.33;107900;1291;22448;-86
2022/04/14 03:25:41;;;;;;;22.80;20.50;;;;;;;5.03;42.36;98287.38;107919;1291;22385;-85
2022/04/14 03:28:09;;;;;;;20.60;18.50;;;;;;;4.95;42.64;98286.79;107892;1290;22288;-83
2022/04/14 03:30:37;;;;;;;21.40;19.30;;;;;;;4.87;42.68;98290.65;107885;1291;22295;-83
2022/04/14 03:33:05;;;;;;;24.40;21.80;;;;;;;4.80;43.09;98287.96;107872;1290;22286;-84
2022/04/14 03:35:33;;;;;;;25.20;22.20;;;;;;;4.74;43.24;98287.26;107871;1291;22449;-83
2022/04/14 03:38:01;;;;;;;25.40;22.50;;;;;;;4.71;43.23;98288.35;107876;1291;22515;-84
2022/04/14 03:40:36;;;;;;;23.10;20.50;;;;;;;4.68;43.43;98288.27;107887;1290;22555;-83
2022/04/14 03:43:04;;;;;;;23.40;18.90;;;;;;;4.61;42.96;98291.35;107979;1291;22433;-84
2022/04/14 03:45:32;;;;;;;26.60;23.70;;;;;;;4.45;43.78;98291.05;108003;1290;22383;-83
2022/04/14 03:48:00;;;;;;;49.80;44.80;;;;;;;4.35;43.89;98284.32;107873;1291;22471;-84
2022/04/14 03:50:28;;;;;;;30.70;27.70;;;;;;;4.28;43.81;98284.16;107885;1290;23144;-84
2022/04/14 03:52:56;;;;;;;36.30;32.10;;;;;;;4.20;43.92;98283.97;107863;1291;22258;-83
2022/04/14 03:55:24;;;;;;;38.60;34.90;;;;;;;4.17;44.12;98283.45;107890;1291;22350;-84
2022/04/14 03:57:52;;;;;;;30.50;27.40;;;;;;;4.17;44.36;98280.89;107876;1291;22389;-84
2022/04/14 04:00:20;;;;;;;23.80;21.40;;;;;;;4.17;44.39;98283.94;107870;1291;22304;-84
2022/04/14 04:02:48;;;;;;;30.20;23.50;;;;;;;4.07;44.41;98283.54;107875;1291;23119;-84
2022/04/14 04:05:16;;;;;;;26.90;23.60;;;;;;;3.97;44.55;98286.83;107866;1291;22403;-84
2022/04/14 04:07:44;;;;;;;29.80;23.80;;;;;;;3.88;45.30;98283.86;107870;1291;22327;-83
2022/04/14 04:10:12;;;;;;;26.30;22.30;;;;;;;3.81;45.53;98283.51;107561;1291;22422;-82
2022/04/14 04:12:40;;;;;;;29.10;24.10;;;;;;;3.77;45.26;98281.22;107843;1291;22360;-84
2022/04/14 04:15:10;;;;;;;79.20;61.40;;;;;;;3.74;45.40;98283.95;107836;1291;22219;-83
2022/04/14 04:17:39;;;;;;;37.80;34.00;;;;;;;3.72;45.59;98289.28;107877;1291;22260;-84
2022/04/14 04:20:07;;;;;;;40.70;36.50;;;;;;;3.72;45.80;98286.46;107879;1291;22473;-84
2022/04/14 04:22:35;;;;;;;46.40;38.40;;;;;;;3.75;45.82;98283.84;107586;1291;22459;-85
2022/04/14 04:25:03;;;;;;;50.10;40.00;;;;;;;3.73;46.47;98289.79;107864;1291;22470;-85
2022/04/14 04:27:31;;;;;;;40.00;35.00;;;;;;;3.72;46.27;98289.56;107657;1293;22417;-85
2022/04/14 04:29:59;;;;;;;47.60;42.10;;;;;;;3.74;46.44;98288.67;107812;1291;22446;-85
2022/04/14 04:32:27;;;;;;;46.90;40.20;;;;;;;3.77;46.55;98290.59;107564;1293;22850;-86
2022/04/14 04:34:55;;;;;;;36.50;30.00;;;;;;;3.83;46.66;98297.29;107833;1291;22392;-87
2022/04/14 04:37:22;;;;;;;53.50;39.70;;;;;;;3.90;47.09;98298.98;107844;1291;22520;-87
2022/04/14 04:39:51;;;;;;;52.70;36.60;;;;;;;3.93;47.19;98298.98;107847;1291;22279;-87
2022/04/14 04:42:18;;;;;;;32.50;27.30;;;;;;;3.98;46.99;98301.92;107526;1292;22360;-82
2022/04/14 04:44:46;;;;;;;31.10;28.00;;;;;;;4.02;47.01;98300.33;107541;1292;23054;-84
2022/04/14 04:47:16;;;;;;;34.50;27.80;;;;;;;4.08;47.57;98294.55;107526;1291;22270;-85
2022/04/14 04:49:44;;;;;;;34.40;29.50;;;;;;;4.18;47.48;98297.23;107839;1291;22454;-85
2022/04/14 04:52:11;;;;;;;36.00;32.10;;;;;;;4.28;47.31;98295.86;107836;1291;22384;-82
2022/04/14 04:54:39;;;;;;;36.80;33.10;;;;;;;4.40;47.38;98296.27;107841;1291;22445;-84
2022/04/14 04:57:07;;;;;;;34.30;30.80;;;;;;;4.50;47.43;98301.73;107874;1291;22359;-85
2022/04/14 04:59:35;;;;;;;36.70;31.70;;;;;;;4.57;47.34;98301.55;107653;1293;22503;-86
2022/04/14 05:02:03;;;;;;;35.60;31.30;;;;;;;4.65;47.16;98302.48;107839;1291;22967;-85
2022/04/14 05:04:32;;;;;;;38.90;35.00;;;;;;;4.75;47.42;98303.34;107846;1291;22260;-84
2022/04/14 05:07:00;;;;;;;31.10;27.90;;;;;;;4.85;47.50;98298.48;107551;1293;22367;-84
2022/04/14 05:09:28;;;;;;;31.10;27.90;;;;;;;4.95;47.41;98300.30;107830;1291;23159;-85
2022/04/14 05:11:56;;;;;;;30.80;27.90;;;;;;;5.04;47.69;98302.25;107860;1291;22378;-85
2022/04/14 05:14:23;;;;;;;33.40;29.80;;;;;;;5.13;47.99;98299.45;107576;1293;22475;-83
2022/04/14 05:16:51;;;;;;;34.70;30.60;;;;;;;5.24;47.92;98297.77;107860;1291;22561;-83
2022/04/14 05:19:19;;;;;;;31.60;28.30;;;;;;;5.36;47.90;98292.38;107851;1291;22375;-83
2022/04/14 05:21:48;;;;;;;33.40;26.90;;;;;;;5.49;48.00;98290.65;107847;1291;22406;-84
2022/04/14 05:24:16;;;;;;;33.10;29.70;;;;;;;5.62;47.53;98291.94;107858;1291;22292;-84
2022/04/14 05:26:44;;;;;;;33.00;29.50;;;;;;;5.76;47.60;98293.63;107850;1291;23044;-84
2022/04/14 05:29:12;;;;;;;31.60;28.30;;;;;;;5.91;47.94;98291.91;107829;1291;22406;-82
2022/04/14 05:31:40;;;;;;;28.60;25.00;;;;;;;6.08;47.80;98282.30;107853;1291;22438;-85
2022/04/14 05:34:07;;;;;;;26.40;23.70;;;;;;;6.28;47.28;98282.82;107835;1291;22421;-86
2022/04/14 05:36:37;;;;;;;24.20;21.80;;;;;;;6.48;47.55;98284.61;107840;1291;22278;-84
2022/04/14 05:39:05;;;;;;;26.00;19.30;;;;;;;6.68;47.10;98284.73;107850;1291;22572;-85
2022/04/14 05:41:33;;;;;;;21.40;19.10;;;;;;;6.89;46.99;98284.24;107827;1291;23054;-85
2022/04/14 05:44:00;;;;;;;23.40;18.60;;;;;;;7.09;47.19;98280.96;107818;1291;22358;-85
2022/04/14 05:46:28;;;;;;;23.00;19.70;;;;;;;7.29;47.22;98286.88;107568;1291;22376;-86
2022/04/14 05:48:56;;;;;;;21.60;19.30;;;;;;;7.49;47.24;98289.06;107834;1291;22314;-86
2022/04/14 05:51:24;;;;;;;22.30;19.90;;;;;;;7.67;46.99;98287.98;107828;1291;22188;-86
2022/04/14 05:53:53;;;;;;;23.30;20.30;;;;;;;7.87;46.94;98295.95;107856;1289;22255;-86
2022/04/14 05:56:21;;;;;;;29.00;23.40;;;;;;;8.05;46.65;98297.20;107851;1291;22361;-86
2022/04/14 05:58:48;;;;;;;23.60;21.00;;;;;;;8.23;46.71;98301.23;107557;1291;22378;-85
2022/04/14 06:01:16;;;;;;;24.40;21.70;;;;;;;8.39;46.40;98296.05;107426;1293;22299;-86
2022/04/14 06:03:44;;;;;;;23.50;21.10;;;;;;;8.53;46.38;98298.48;107824;1291;22336;-86
2022/04/14 06:06:13;;;;;;;25.40;22.70;;;;;;;8.65;46.53;98301.42;107852;1291;22366;-86
2022/04/14 06:08:41;;;;;;;23.70;21.20;;;;;;;8.78;46.37;98302.55;107845;1291;22419;-84
2022/04/14 06:11:09;;;;;;;25.00;22.10;;;;;;;8.91;46.17;98302.52;107573;1291;22359;-85
2022/04/14 06:13:37;;;;;;;24.50;21.70;;;;;;;9.03;46.11;98303.73;107817;1291;22402;-84
2022/04/14 06:16:05;;;;;;;25.20;22.30;;;;;;;9.15;46.28;98300.82;107835;1291;22354;-86
2022/04/14 06:18:33;;;;;;;26.20;23.60;;;;;;;9.28;46.05;98301.05;107836;1290;22407;-85
2022/04/14 06:21:01;;;;;;;25.80;22.00;;;;;;;9.41;46.13;98295.03;107830;1291;22655;-84
2022/04/14 06:23:29;;;;;;;29.10;20.80;;;;;;;9.56;46.00;98301.05;107820;1291;22323;-86
2022/04/14 06:25:56;;;;;;;23.00;20.40;;;;;;;9.70;45.89;98300.77;107846;1291;22440;-83
2022/04/14 06:28:24;;;;;;;24.30;20.80;;;;;;;9.84;45.87;98300.91;107838;1291;23118;-85
2022/04/14 06:30:52;;;;;;;20.70;18.60;;;;;;;9.97;45.70;98296.95;107843;1291;22526;-84
2022/04/14 06:33:20;;;;;;;21.90;19.60;;;;;;;10.11;45.52;98299.35;107840;1291;22412;-84
2022/04/14 06:35:48;;;;;;;21.80;19.40;;;;;;;10.25;45.66;98294.26;107840;1291;22323;-84
2022/04/14 06:38:16;;;;;;;20.90;17.20;;;;;;;10.39;45.40;98292.33;107598;1291;22357;-83
2022/04/14 06:40:47;;;;;;;21.80;18.70;;;;;;;10.53;45.51;98296.31;108030;1291;22577;-83
2022/04/14 06:43:14;;;;;;;22.30;20.00;;;;;;;10.66;45.44;98290.42;108063;1291;23030;-84
2022/04/14 06:45:42;;;;;;;23.60;19.20;;;;;;;10.80;45.36;98288.53;107811;1291;22475;-85
2022/04/14 06:48:10;;;;;;;26.50;19.60;;;;;;;10.95;45.55;98288.59;107815;1291;22261;-84
2022/04/14 06:50:40;;;;;;;26.60;21.80;;;;;;;11.11;45.36;98288.85;107819;1290;22411;-85
2022/04/14 06:53:08;;;;;;;25.70;20.90;;;;;;;11.28;45.29;98288.59;107802;1290;22438;-83
2022/04/14 06:55:37;;;;;;;26.60;21.50;;;;;;;11.45;45.41;98289.14;107817;1290;22156;-83
2022/04/14 06:58:06;;;;;;;24.40;20.80;;;;;;;11.60;45.16;98289.27;107805;1290;22263;-83
2022/04/14 07:00:34;;;;;;;22.00;19.60;;;;;;;11.74;45.07;98292.42;107825;1291;22964;-84
2022/04/14 07:03:02;;;;;;;22.90;19.00;;;;;;;11.90;44.90;98291.91;107553;1291;23043;-83
2022/04/14 07:05:31;;;;;;;26.90;20.00;;;;;;;12.04;44.84;98297.08;107810;1291;23109;-84
2022/04/14 07:07:58;;;;;;;21.00;18.90;;;;;;;12.18;44.55;98296.55;107841;1291;22563;-84
2022/04/14 07:10:27;;;;;;;23.30;18.60;;;;;;;12.30;44.58;98294.25;107835;1291;22433;-84
2022/04/14 07:12:55;;;;;;;22.60;19.80;;;;;;;12.40;44.68;98293.30;108261;1290;22440;-81
2022/04/14 07:15:23;;;;;;;22.20;18.60;;;;;;;12.49;44.58;98294.24;108312;1290;22435;-81
2022/04/14 07:17:51;;;;;;;19.60;17.60;;;;;;;12.61;44.50;98294.17;108360;1290;22280;-81
2022/04/14 07:20:19;;;;;;;20.80;18.10;;;;;;;12.74;44.36;98295.52;108054;1290;23087;-82
2022/04/14 07:22:49;;;;;;;32.00;17.50;;;;;;;12.85;44.47;98291.72;108007;1290;22575;-83
2022/04/14 07:25:24;;;;;;;20.90;17.10;;;;;;;12.96;44.25;98290.36;108089;1290;22282;-85
2022/04/14 07:27:53;;;;;;;19.60;15.80;;;;;;;13.06;44.07;98296.45;107915;1290;23155;-82
2022/04/14 07:30:23;;;;;;;18.10;16.20;;;;;;;13.19;44.06;98300.17;107923;1290;23074;-82
2022/04/14 07:32:51;;;;;;;19.30;16.90;;;;;;;13.31;43.94;98298.08;107887;1290;22860;-84
2022/04/14 07:35:25;;;;;;;16.80;15.10;;;;;;;13.43;43.77;98299.63;107977;1290;22375;-84
2022/04/14 07:37:53;;;;;;;17.90;15.30;;;;;;;13.54;43.75;98299.19;107541;1290;22984;-85
2022/04/14 07:40:21;;;;;;;19.00;15.20;;;;;;;13.67;43.72;98298.29;108000;1290;22416;-84
2022/04/14 07:42:50;;;;;;;15.90;14.00;;;;;;;13.78;43.37;98300.39;107996;1290;22460;-84
2022/04/14 07:45:18;;;;;;;16.90;14.40;;;;;;;13.89;43.51;98300.23;107475;1291;22445;-84
2022/04/14 07:47:47;;;;;;;18.60;15.40;;;;;;;14.00;43.43;98299.18;107821;1291;22381;-84
2022/04/14 07:50:19;;;;;;;20.60;14.70;;;;;;;14.16;43.11;98304.80;107805;1290;22438;-83
2022/04/14 07:52:49;;;;;;;17.80;14.60;;;;;;;14.28;43.04;98304.17;107827;1291;22283;-84
2022/04/14 07:55:23;;;;;;;16.30;13.50;;;;;;;14.43;42.81;98306.16;108155;1290;22399;-83
2022/04/14 07:57:53;;;;;;;14.60;13.00;;;;;;;14.57;42.93;98310.86;108109;1291;22326;-82
2022/04/14 08:00:23;;;;;;;16.90;13.30;;;;;;;14.68;42.72;98304.81;108117;1291;22466;-83
2022/04/14 08:02:56;;;;;;;17.00;13.60;;;;;;;14.81;42.81;98303.09;108100;1290;23055;-83
2022/04/14 08:05:29;;;;;;;14.60;12.90;;;;;;;14.95;42.48;98305.34;107853;1292;22464;-83
2022/04/14 08:11:39;;;;;;;15.20;12.30;;;;;;;15.26;41.96;98295.98;107821;1290;22468;-84
2022/04/14 08:14:07;;;;;;;16.30;12.90;;;;;;;15.37;42.09;98294.77;107843;1290;22335;-84
2022/04/14 08:16:34;;;;;;;17.30;15.10;;;;;;;15.48;42.04;98294.38;107817;1290;22985;-84
2022/04/14 08:19:03;;;;;;;16.20;13.40;;;;;;;15.61;42.04;98290.36;107822;1291;22400;-83
2022/04/14 08:21:31;;;;;;;15.70;12.50;;;;;;;15.73;41.73;98292.01;107810;1291;22483;-82
2022/04/14 08:23:59;;;;;;;16.10;10.90;;;;;;;15.83;41.17;98289.33;107796;1291;22347;-82
2022/04/14 08:26:27;;;;;;;14.70;12.20;;;;;;;15.92;41.36;98291.33;107779;1290;22319;-81
2022/04/14 08:28:56;;;;;;;14.60;12.80;;;;;;;16.03;41.41;98292.13;107787;1291;22493;-82
2022/04/14 08:31:26;;;;;;;16.20;13.20;;;;;;;16.14;41.04;98291.41;107763;1291;23048;-82
2022/04/14 08:33:55;;;;;;;19.50;14.00;;;;;;;16.25;40.95;98289.74;107781;1291;22550;-83
2022/04/14 08:36:22;;;;;;;16.10;14.20;;;;;;;16.39;40.95;98293.57;107801;1290;22247;-82
2022/04/14 08:38:50;;;;;;;16.00;12.70;;;;;;;16.49;40.61;98291.65;107642;1293;22890;-83
2022/04/14 08:41:21;;;;;;;16.50;12.60;;;;;;;16.59;40.49;98290.95;107732;1290;22643;-82
2022/04/14 08:43:59;;;;;;;12.40;11.00;;;;;;;16.68;40.22;98289.14;107653;1291;22890;-83
2022/04/14 08:46:28;;;;;;;13.20;10.80;;;;;;;16.77;40.03;98288.98;107833;1290;22348;-84
2022/04/14 08:48:57;;;;;;;16.60;10.80;;;;;;;16.92;39.58;98290.92;107588;1291;22248;-83
2022/04/14 08:51:28;;;;;;;11.30;10.10;;;;;;;17.02;39.75;98292.41;107806;1291;22354;-82
2022/04/14 08:53:56;;;;;;;13.10;11.60;;;;;;;17.17;39.60;98289.77;107506;1291;23229;-82
2022/04/14 08:56:24;;;;;;;13.80;11.50;;;;;;;17.27;38.19;98286.81;107777;1290;22338;-83
2022/04/14 08:58:55;;;;;;;11.20;9.50;;;;;;;17.32;38.85;98284.18;107626;1293;22581;-82
2022/04/14 09:01:27;;;;;;;13.60;10.40;;;;;;;17.40;39.01;98278.65;107935;1290;22538;-82
2022/04/14 09:03:57;;;;;;;12.00;10.40;;;;;;;17.54;38.72;98275.70;107968;1289;22339;-83
2022/04/14 09:06:29;;;;;;;13.60;10.20;;;;;;;17.63;38.46;98274.71;107704;1290;22364;-83
2022/04/14 09:08:59;;;;;;;11.30;10.10;;;;;;;17.71;38.31;98272.81;107977;1290;22534;-83
2022/04/14 09:11:29;;;;;;;12.90;11.60;;;;;;;17.80;38.12;98265.41;107943;1290;23200;-82
2022/04/14 09:13:59;;;;;;;15.30;10.30;;;;;;;17.92;38.19;98258.99;107972;1290;22377;-82
2022/04/14 09:16:30;;;;;;;13.20;9.80;;;;;;;18.07;37.85;98255.13;107699;1290;22374;-82
2022/04/14 09:19:00;;;;;;;10.20;9.10;;;;;;;18.20;37.60;98254.13;107990;1290;22449;-82
2022/04/14 09:21:29;;;;;;;10.00;8.90;;;;;;;18.36;37.40;98257.38;107398;1294;22382;-83
2022/04/14 09:23:57;;;;;;;12.20;9.10;;;;;;;18.52;37.02;98253.98;107997;1289;22445;-84
2022/04/14 09:26:25;;;;;;;13.00;9.30;;;;;;;18.74;37.15;98254.05;107979;1290;22285;-84
2022/04/14 09:29:00;;;;;;;18.80;10.50;;;;;;;18.88;36.48;98252.85;107981;1289;22540;-82
2022/04/14 09:31:29;;;;;;;10.60;8.50;;;;;;;18.96;36.06;98250.66;107966;1290;22481;-83
2022/04/14 09:33:57;;;;;;;12.20;10.90;;;;;;;19.06;35.86;98247.76;107986;1290;22454;-82
2022/04/14 09:36:27;;;;;;;11.70;9.10;;;;;;;19.16;35.88;98248.20;107631;1291;22370;-83
2022/04/14 09:39:00;;;;;;;11.60;8.70;;;;;;;19.23;35.61;98239.20;107803;1290;22370;-83
2022/04/14 09:41:30;;;;;;;9.00;8.10;;;;;;;19.23;34.83;98232.24;107808;1288;23169;-83
2022/04/14 09:44:05;;;;;;;8.90;7.50;;;;;;;19.17;34.79;98223.02;107825;1291;22469;-84
2022/04/14 09:46:33;;;;;;;12.30;9.30;;;;;;;19.24;34.15;98223.23;107787;1290;23086;-83
2022/04/14 09:49:07;;;;;;;11.40;8.40;;;;;;;19.37;34.32;98223.27;107796;1291;22293;-83
2022/04/14 09:51:40;;;;;;;10.10;7.80;;;;;;;19.50;34.52;98221.83;107823;1291;22491;-83
2022/04/14 09:54:12;;;;;;;10.30;8.10;;;;;;;19.62;34.45;98219.59;107839;1291;22373;-84
2022/04/14 09:56:45;;;;;;;9.10;7.60;;;;;;;19.75;34.38;98218.05;107829;1290;22393;-83
2022/04/14 09:59:18;;;;;;;10.20;7.90;;;;;;;19.90;34.27;98216.48;107831;1290;22257;-83
2022/04/14 10:01:47;;;;;;;8.60;7.70;;;;;;;20.07;33.96;98215.25;107792;1291;22503;-84
2022/04/14 10:04:29;;;;;;;8.40;7.00;;;;;;;20.18;33.73;98217.63;107810;1290;22402;-83
2022/04/14 10:07:07;;;;;;;11.50;9.00;;;;;;;20.28;33.45;98219.50;107813;1290;23406;-84
2022/04/14 10:09:41;;;;;;;9.20;7.70;;;;;;;20.38;33.78;98210.05;107792;1290;22386;-84
2022/04/14 10:12:17;;;;;;;11.00;7.70;;;;;;;20.44;32.74;98209.70;107800;1290;22384;-83
2022/04/14 10:15:04;;;;;;;11.00;7.00;;;;;;;20.42;31.77;98201.54;107827;1290;22348;-84
2022/04/14 10:17:37;;;;;;;9.50;6.80;;;;;;;20.42;32.02;98202.80;107822;1290;22483;-84
2022/04/14 10:20:09;;;;;;;10.00;7.80;;;;;;;20.41;31.95;98203.17;107614;1290;22237;-84
2022/04/14 10:22:38;;;;;;;9.90;6.90;;;;;;;20.40;32.01;98198.38;107868;1290;22181;-83
2022/04/14 10:25:07;;;;;;;22.10;8.50;;;;;;;20.44;32.11;98194.45;107829;1290;22415;-83
2022/04/14 10:27:39;;;;;;;17.30;13.20;;;;;;;20.53;31.67;98191.73;107587;1291;22375;-83
2022/04/14 10:30:07;;;;;;;42.40;30.20;;;;;;;20.62;30.94;98189.11;107570;1290;23182;-82
2022/04/14 10:32:35;;;;;;;18.60;12.00;;;;;;;20.61;30.31;98189.00;107835;1290;23079;-84
2022/04/14 10:35:08;;;;;;;12.40;7.40;;;;;;;20.55;30.81;98186.05;107816;1290;22347;-83
2022/04/14 10:37:43;;;;;;;12.00;7.10;;;;;;;20.58;30.68;98185.98;107597;1291;22317;-84
2022/04/14 10:40:11;;;;;;;8.20;6.50;;;;;;;20.66;31.03;98184.98;107551;1291;22382;-85
2022/04/14 10:42:53;;;;;;;9.10;7.00;;;;;;;20.76;30.87;98180.72;107790;1290;22382;-84
2022/04/14 10:45:23;;;;;;;8.80;6.50;;;;;;;20.80;30.88;98175.48;107818;1290;22446;-84
2022/04/14 10:47:58;;;;;;;7.30;6.50;;;;;;;20.85;30.85;98175.98;107856;1290;22380;-84
2022/04/14 10:50:34;;;;;;;7.30;5.90;;;;;;;21.03;30.56;98167.34;107541;1291;22481;-84
2022/04/14 10:53:09;;;;;;;10.10;7.00;;;;;;;21.13;30.27;98167.77;107927;1290;22453;-83
2022/04/14 10:55:43;;;;;;;10.10;6.90;;;;;;;21.27;30.54;98165.23;107977;1290;23119;-83
2022/04/14 10:58:38;;;;;;;10.50;6.30;;;;;;;21.49;30.67;98163.86;107664;1291;22409;-83
2022/04/14 11:01:11;;;;;;;7.40;5.50;;;;;;;21.58;28.63;98164.23;107750;1291;22281;-85
2022/04/14 11:03:52;;;;;;;7.50;5.10;;;;;;;21.47;28.41;98159.59;107740;1290;22400;-84
2022/04/14 11:06:43;;;;;;;10.50;7.30;;;;;;;21.42;29.32;98157.70;107714;1290;22570;-84
2022/04/14 11:09:42;;;;;;;7.90;5.70;;;;;;;21.56;28.44;98159.36;108011;1290;22611;-84
2022/04/14 11:12:12;;;;;;;7.80;5.30;;;;;;;21.70;28.73;98160.46;108044;1289;22471;-85
2022/04/14 11:14:50;;;;;;;9.10;4.90;;;;;;;21.79;28.99;98158.41;107736;1290;22365;-83
2022/04/14 11:17:30;;;;;;;7.70;5.50;;;;;;;21.95;28.89;98158.74;107799;1290;22462;-83
2022/04/14 11:20:19;;;;;;;7.70;4.90;;;;;;;22.11;28.93;98152.89;108052;1289;22380;-87
2022/04/14 11:23:07;;;;;;;8.00;5.70;;;;;;;22.37;28.50;98156.36;108052;1290;22330;-85
2022/04/14 11:25:49;;;;;;;6.70;5.10;;;;;;;22.57;28.58;98154.60;108102;1290;22370;-85
2022/04/14 11:28:18;;;;;;;6.40;4.40;;;;;;;22.79;28.31;98156.06;107966;1290;22415;-87
2022/04/14 11:30:48;;;;;;;6.70;4.70;;;;;;;22.93;28.06;98153.26;108043;1290;22365;-86